sensor_id;sensor_type;location;lat;lon;timestamp;pressure;altitude;pressure_sealevel;temperature;humidity
10097;BME280;5087;42.662;23.466;2022-10-31T00:01:18;95881.75;;;6.27;100.00
10097;BME280;5087;42.662;23.466;2022-10-31T00:03:48;95861.47;;;6.40;100.00
10097;BME280;5087;42.662;23.466;2022-10-31T00:06:16;95841.00;;;6.29;100.00
10097;BME280;5087;42.662;23.466;2022-10-31T00:08:44;95871.97;;;6.47;100.00
10097;BME280;5087;42.662;23.466;2022-10-31T00:11:11;95878.41;;;6.51;100.00
10097;BME280;5087;42.662;23.466;2022-10-31T00:13:39;95874.03;;;6.60;100.00
10097;BME280;5087;42.662;23.466;2022-10-31T00:16:13;95876.44;;;6.62;100.00
10097;BME280;5087;42.662;23.466;2022-10-31T00:18:41;95835.97;;;6.62;100.00
10097;BME280;5087;42.662;23.466;2022-10-31T00:21:11;95858.53;;;7.16;100.00
10097;BME280;5087;42.662;23.466;2022-10-31T00:23:38;95882.78;;;7.21;100.00
10097;BME280;5087;42.662;23.466;2022-10-31T00:26:05;95876.34;;;7.17;100.00
10097;BME280;5087;42.662;23.466;2022-10-31T00:28:33;95864.78;;;7.11;100.00
10097;BME280;5087;42.662;23.466;2022-10-31T00:31:00;95864.97;;;7.20;100.00
10097;BME280;5087;42.662;23.466;2022-10-31T00:33:28;95883.34;;;7.18;100.00
10097;BME280;5087;42.662;23.466;2022-10-31T00:35:56;95868.81;;;7.14;100.00
10097;BME280;5087;42.662;23.466;2022-10-31T00:38:25;95873.38;;;7.19;100.00
10097;BME280;5087;42.662;23.466;2022-10-31T00:40:52;95880.66;;;7.18;100.00
10097;BME280;5087;42.662;23.466;2022-10-31T00:43:20;95825.38;;;6.71;100.00
10097;BME280;5087;42.662;23.466;2022-10-31T00:45:47;95843.66;;;6.84;100.00
10097;BME280;5087;42.662;23.466;2022-10-31T00:48:15;95866.34;;;6.83;100.00
10097;BME280;5087;42.662;23.466;2022-10-31T00:50:43;95850.22;;;6.73;100.00
10097;BME280;5087;42.662;23.466;2022-10-31T00:53:10;95865.84;;;6.76;100.00
10097;BME280;5087;42.662;23.466;2022-10-31T00:55:39;95875.22;;;6.84;100.00
10097;BME280;5087;42.662;23.466;2022-10-31T00:58:07;95883.06;;;6.80;100.00
10097;BME280;5087;42.662;23.466;2022-10-31T01:00:34;95817.78;;;6.38;100.00
10097;BME280;5087;42.662;23.466;2022-10-31T01:03:02;95842.50;;;6.56;100.00
10097;BME280;5087;42.662;23.466;2022-10-31T01:05:30;95827.00;;;6.32;100.00
10097;BME280;5087;42.662;23.466;2022-10-31T01:07:58;95879.94;;;6.68;100.00
10097;BME280;5087;42.662;23.466;2022-10-31T01:10:26;95846.66;;;6.38;100.00
10097;BME280;5087;42.662;23.466;2022-10-31T01:12:55;95835.63;;;6.29;100.00
10097;BME280;5087;42.662;23.466;2022-10-31T01:15:22;95879.47;;;6.50;100.00
10097;BME280;5087;42.662;23.466;2022-10-31T01:17:50;95875.81;;;6.30;100.00
10097;BME280;5087;42.662;23.466;2022-10-31T01:20:17;95881.72;;;6.32;100.00
10097;BME280;5087;42.662;23.466;2022-10-31T01:22:44;95890.59;;;6.38;100.00
10097;BME280;5087;42.662;23.466;2022-10-31T01:25:12;95896.88;;;6.23;100.00
10097;BME280;5087;42.662;23.466;2022-10-31T01:27:39;95899.03;;;6.21;100.00
10097;BME280;5087;42.662;23.466;2022-10-31T01:30:09;95891.78;;;6.06;100.00
10097;BME280;5087;42.662;23.466;2022-10-31T01:32:37;95875.38;;;5.92;100.00
10097;BME280;5087;42.662;23.466;2022-10-31T01:35:05;95902.06;;;6.04;100.00
10097;BME280;5087;42.662;23.466;2022-10-31T01:37:32;95901.78;;;6.06;100.00
10097;BME280;5087;42.662;23.466;2022-10-31T01:40:00;95898.50;;;6.24;100.00
10097;BME280;5087;42.662;23.466;2022-10-31T01:42:27;95885.53;;;6.26;100.00
10097;BME280;5087;42.662;23.466;2022-10-31T01:44:58;95832.81;;;5.99;100.00
10097;BME280;5087;42.662;23.466;2022-10-31T01:47:40;95884.88;;;6.50;100.00
10097;BME280;5087;42.662;23.466;2022-10-31T01:50:14;95881.34;;;6.55;100.00
10097;BME280;5087;42.662;23.466;2022-10-31T01:52:45;95903.94;;;6.69;100.00
10097;BME280;5087;42.662;23.466;2022-10-31T01:55:17;95902.06;;;6.70;100.00
10097;BME280;5087;42.662;23.466;2022-10-31T01:57:48;95898.84;;;6.62;100.00
10097;BME280;5087;42.662;23.466;2022-10-31T02:00:19;95903.72;;;6.55;100.00
10097;BME280;5087;42.662;23.466;2022-10-31T02:02:50;95909.19;;;6.45;100.00
10097;BME280;5087;42.662;23.466;2022-10-31T02:05:20;95879.00;;;6.32;100.00
10097;BME280;5087;42.662;23.466;2022-10-31T02:07:51;95832.25;;;6.08;100.00
10097;BME280;5087;42.662;23.466;2022-10-31T02:10:27;95888.59;;;6.59;100.00
10097;BME280;5087;42.662;23.466;2022-10-31T02:12:56;95892.94;;;6.55;100.00
10097;BME280;5087;42.662;23.466;2022-10-31T02:15:26;95897.50;;;6.65;100.00
10097;BME280;5087;42.662;23.466;2022-10-31T02:17:55;95892.84;;;6.71;100.00
10097;BME280;5087;42.662;23.466;2022-10-31T02:20:25;95878.84;;;6.63;100.00
10097;BME280;5087;42.662;23.466;2022-10-31T02:23:17;95896.81;;;6.89;100.00
10097;BME280;5087;42.662;23.466;2022-10-31T02:26:07;95908.34;;;6.94;100.00
10097;BME280;5087;42.662;23.466;2022-10-31T02:28:57;95888.81;;;6.73;100.00
10097;BME280;5087;42.662;23.466;2022-10-31T02:31:33;95907.16;;;6.71;100.00
10097;BME280;5087;42.662;23.466;2022-10-31T02:34:10;95904.00;;;6.59;100.00
10097;BME280;5087;42.662;23.466;2022-10-31T02:36:48;95919.16;;;6.44;100.00
10097;BME280;5087;42.662;23.466;2022-10-31T02:39:23;95861.88;;;6.08;100.00
10097;BME280;5087;42.662;23.466;2022-10-31T02:41:58;95912.41;;;6.47;100.00
10097;BME280;5087;42.662;23.466;2022-10-31T02:44:36;95918.84;;;6.51;100.00
10097;BME280;5087;42.662;23.466;2022-10-31T02:47:11;95918.06;;;6.51;100.00
10097;BME280;5087;42.662;23.466;2022-10-31T02:49:45;95909.75;;;6.37;100.00
10097;BME280;5087;42.662;23.466;2022-10-31T02:52:20;95898.50;;;6.24;100.00
10097;BME280;5087;42.662;23.466;2022-10-31T02:54:48;95920.50;;;6.42;100.00
10097;BME280;5087;42.662;23.466;2022-10-31T02:57:17;95918.09;;;6.40;100.00
10097;BME280;5087;42.662;23.466;2022-10-31T02:59:50;95928.28;;;6.54;100.00
10097;BME280;5087;42.662;23.466;2022-10-31T03:02:33;95933.13;;;6.52;100.00
10097;BME280;5087;42.662;23.466;2022-10-31T03:05:14;95912.84;;;6.64;100.00
10097;BME280;5087;42.662;23.466;2022-10-31T03:07:54;95900.94;;;6.71;100.00
10097;BME280;5087;42.662;23.466;2022-10-31T03:10:33;95858.91;;;6.64;100.00
10097;BME280;5087;42.662;23.466;2022-10-31T03:13:06;95918.31;;;6.99;100.00
10097;BME280;5087;42.662;23.466;2022-10-31T03:15:39;95919.06;;;7.10;100.00
10097;BME280;5087;42.662;23.466;2022-10-31T03:18:14;95912.63;;;7.40;100.00
10097;BME280;5087;42.662;23.466;2022-10-31T03:20:47;95911.81;;;7.40;100.00
10097;BME280;5087;42.662;23.466;2022-10-31T03:23:16;95912.88;;;7.44;100.00
10097;BME280;5087;42.662;23.466;2022-10-31T03:25:50;95914.38;;;7.55;100.00
10097;BME280;5087;42.662;23.466;2022-10-31T03:28:28;95920.31;;;7.57;100.00
10097;BME280;5087;42.662;23.466;2022-10-31T03:30:57;95927.38;;;7.53;100.00
10097;BME280;5087;42.662;23.466;2022-10-31T03:33:31;95923.06;;;7.52;100.00
10097;BME280;5087;42.662;23.466;2022-10-31T03:36:03;95923.13;;;7.42;100.00
10097;BME280;5087;42.662;23.466;2022-10-31T03:38:33;95937.22;;;7.39;100.00
10097;BME280;5087;42.662;23.466;2022-10-31T03:41:03;95933.16;;;7.41;100.00
10097;BME280;5087;42.662;23.466;2022-10-31T03:43:36;95931.88;;;7.28;100.00
10097;BME280;5087;42.662;23.466;2022-10-31T03:46:05;95927.38;;;7.19;100.00
10097;BME280;5087;42.662;23.466;2022-10-31T03:48:34;95921.75;;;7.10;100.00
10097;BME280;5087;42.662;23.466;2022-10-31T03:51:07;95942.69;;;7.28;100.00
10097;BME280;5087;42.662;23.466;2022-10-31T03:53:39;95936.28;;;7.19;100.00
10097;BME280;5087;42.662;23.466;2022-10-31T03:56:21;95917.44;;;7.09;100.00
10097;BME280;5087;42.662;23.466;2022-10-31T03:58:57;95947.28;;;7.28;100.00
10097;BME280;5087;42.662;23.466;2022-10-31T04:01:29;95942.94;;;7.32;100.00
10097;BME280;5087;42.662;23.466;2022-10-31T04:04:00;95955.88;;;7.35;100.00
10097;BME280;5087;42.662;23.466;2022-10-31T04:06:30;95947.81;;;7.30;100.00
10097;BME280;5087;42.662;23.466;2022-10-31T04:09:01;95951.56;;;7.34;100.00
10097;BME280;5087;42.662;23.466;2022-10-31T04:11:34;95954.22;;;7.39;100.00
10097;BME280;5087;42.662;23.466;2022-10-31T04:14:38;95948.28;;;7.37;100.00
10097;BME280;5087;42.662;23.466;2022-10-31T04:17:10;95958.75;;;7.49;100.00
10097;BME280;5087;42.662;23.466;2022-10-31T04:19:42;95953.19;;;7.35;100.00
10097;BME280;5087;42.662;23.466;2022-10-31T04:22:09;95956.50;;;7.56;100.00
10097;BME280;5087;42.662;23.466;2022-10-31T04:24:38;95948.28;;;7.42;100.00
10097;BME280;5087;42.662;23.466;2022-10-31T04:27:07;95959.38;;;7.36;100.00
10097;BME280;5087;42.662;23.466;2022-10-31T04:29:34;95952.59;;;7.38;100.00
10097;BME280;5087;42.662;23.466;2022-10-31T04:32:02;95937.84;;;7.25;100.00
10097;BME280;5087;42.662;23.466;2022-10-31T04:34:29;95917.53;;;6.99;100.00
10097;BME280;5087;42.662;23.466;2022-10-31T04:36:58;95916.81;;;7.22;100.00
10097;BME280;5087;42.662;23.466;2022-10-31T04:39:25;95980.50;;;7.28;100.00
10097;BME280;5087;42.662;23.466;2022-10-31T04:42:18;95980.06;;;7.11;100.00
10097;BME280;5087;42.662;23.466;2022-10-31T04:44:45;95948.97;;;7.19;100.00
10097;BME280;5087;42.662;23.466;2022-10-31T04:47:13;95989.09;;;6.91;100.00
10097;BME280;5087;42.662;23.466;2022-10-31T04:49:42;95941.84;;;6.93;100.00
10097;BME280;5087;42.662;23.466;2022-10-31T04:52:11;95901.53;;;7.07;100.00
10097;BME280;5087;42.662;23.466;2022-10-31T04:54:40;95917.63;;;6.83;100.00
10097;BME280;5087;42.662;23.466;2022-10-31T04:57:25;95966.16;;;7.33;100.00
10097;BME280;5087;42.662;23.466;2022-10-31T04:59:54;95923.84;;;7.23;100.00
10097;BME280;5087;42.662;23.466;2022-10-31T05:02:23;95944.03;;;7.31;100.00
10097;BME280;5087;42.662;23.466;2022-10-31T05:04:54;95987.53;;;7.29;100.00
10097;BME280;5087;42.662;23.466;2022-10-31T05:07:23;95966.94;;;7.34;100.00
10097;BME280;5087;42.662;23.466;2022-10-31T05:09:50;95992.78;;;7.50;100.00
10097;BME280;5087;42.662;23.466;2022-10-31T05:12:19;96001.19;;;7.43;100.00
10097;BME280;5087;42.662;23.466;2022-10-31T05:15:06;95976.81;;;7.54;100.00
10097;BME280;5087;42.662;23.466;2022-10-31T05:17:43;96005.31;;;7.36;100.00
10097;BME280;5087;42.662;23.466;2022-10-31T05:20:33;95978.91;;;7.62;100.00
10097;BME280;5087;42.662;23.466;2022-10-31T05:23:23;96007.00;;;7.66;100.00
10097;BME280;5087;42.662;23.466;2022-10-31T05:25:50;95982.25;;;7.83;100.00
10097;BME280;5087;42.662;23.466;2022-10-31T05:28:18;95959.22;;;7.56;100.00
10097;BME280;5087;42.662;23.466;2022-10-31T05:30:46;96002.06;;;7.73;100.00
10097;BME280;5087;42.662;23.466;2022-10-31T05:33:15;95965.03;;;7.74;100.00
10097;BME280;5087;42.662;23.466;2022-10-31T05:36:01;96024.47;;;7.74;100.00
10097;BME280;5087;42.662;23.466;2022-10-31T05:38:41;96007.47;;;7.34;100.00
10097;BME280;5087;42.662;23.466;2022-10-31T05:41:19;96009.81;;;7.51;100.00
10097;BME280;5087;42.662;23.466;2022-10-31T05:43:47;96007.84;;;7.56;100.00
10097;BME280;5087;42.662;23.466;2022-10-31T05:46:17;96024.66;;;7.48;100.00
10097;BME280;5087;42.662;23.466;2022-10-31T05:49:24;95991.31;;;7.28;100.00
10097;BME280;5087;42.662;23.466;2022-10-31T05:51:51;96025.19;;;7.50;100.00
10097;BME280;5087;42.662;23.466;2022-10-31T05:54:23;96041.00;;;7.27;100.00
10097;BME280;5087;42.662;23.466;2022-10-31T05:56:51;96011.47;;;7.41;100.00
10097;BME280;5087;42.662;23.466;2022-10-31T05:59:21;96027.59;;;7.52;100.00
10097;BME280;5087;42.662;23.466;2022-10-31T06:01:48;96003.72;;;7.69;100.00
10097;BME280;5087;42.662;23.466;2022-10-31T06:04:32;96014.69;;;8.13;100.00
10097;BME280;5087;42.662;23.466;2022-10-31T06:06:59;96035.72;;;8.50;100.00
10097;BME280;5087;42.662;23.466;2022-10-31T06:09:28;96048.97;;;8.52;100.00
10097;BME280;5087;42.662;23.466;2022-10-31T06:11:55;96001.63;;;8.49;100.00
10097;BME280;5087;42.662;23.466;2022-10-31T06:14:25;96025.13;;;8.78;100.00
10097;BME280;5087;42.662;23.466;2022-10-31T06:16:55;96014.88;;;8.75;100.00
10097;BME280;5087;42.662;23.466;2022-10-31T06:19:41;96003.72;;;9.01;100.00
10097;BME280;5087;42.662;23.466;2022-10-31T06:22:10;96045.56;;;9.33;100.00
10097;BME280;5087;42.662;23.466;2022-10-31T06:24:39;95988.38;;;9.15;100.00
10097;BME280;5087;42.662;23.466;2022-10-31T06:27:26;96036.69;;;9.85;100.00
10097;BME280;5087;42.662;23.466;2022-10-31T06:29:54;96059.47;;;10.17;100.00
10097;BME280;5087;42.662;23.466;2022-10-31T06:32:28;96025.16;;;9.93;100.00
10097;BME280;5087;42.662;23.466;2022-10-31T06:34:57;96056.59;;;10.27;100.00
10097;BME280;5087;42.662;23.466;2022-10-31T06:37:25;96035.56;;;10.38;100.00
10097;BME280;5087;42.662;23.466;2022-10-31T06:39:59;96058.94;;;10.81;100.00
10097;BME280;5087;42.662;23.466;2022-10-31T06:42:26;96051.88;;;10.80;100.00
10097;BME280;5087;42.662;23.466;2022-10-31T06:44:53;96050.00;;;10.80;100.00
10097;BME280;5087;42.662;23.466;2022-10-31T06:47:50;96050.56;;;10.63;100.00
10097;BME280;5087;42.662;23.466;2022-10-31T06:50:25;96052.19;;;10.92;100.00
10097;BME280;5087;42.662;23.466;2022-10-31T06:52:53;96013.69;;;11.27;100.00
10097;BME280;5087;42.662;23.466;2022-10-31T06:55:22;96039.38;;;11.34;100.00
10097;BME280;5087;42.662;23.466;2022-10-31T06:57:50;96058.44;;;11.57;100.00
10097;BME280;5087;42.662;23.466;2022-10-31T07:00:21;96051.69;;;11.91;100.00
10097;BME280;5087;42.662;23.466;2022-10-31T07:02:56;96003.09;;;11.53;100.00
10097;BME280;5087;42.662;23.466;2022-10-31T07:05:24;96056.78;;;12.29;100.00
10097;BME280;5087;42.662;23.466;2022-10-31T07:07:52;95999.34;;;12.40;100.00
10097;BME280;5087;42.662;23.466;2022-10-31T07:10:23;96043.50;;;12.59;100.00
10097;BME280;5087;42.662;23.466;2022-10-31T07:13:00;96033.50;;;12.86;100.00
10097;BME280;5087;42.662;23.466;2022-10-31T07:15:34;96041.25;;;13.10;100.00
10097;BME280;5087;42.662;23.466;2022-10-31T07:18:01;96006.81;;;13.06;100.00
10097;BME280;5087;42.662;23.466;2022-10-31T07:20:30;96027.72;;;13.37;100.00
10097;BME280;5087;42.662;23.466;2022-10-31T07:22:58;96038.03;;;13.57;100.00
10097;BME280;5087;42.662;23.466;2022-10-31T07:25:28;95992.75;;;13.39;100.00
10097;BME280;5087;42.662;23.466;2022-10-31T07:28:14;96011.72;;;13.79;100.00
10097;BME280;5087;42.662;23.466;2022-10-31T07:30:49;96016.72;;;14.60;100.00
10097;BME280;5087;42.662;23.466;2022-10-31T07:33:22;96020.31;;;14.34;100.00
10097;BME280;5087;42.662;23.466;2022-10-31T07:36:17;96036.44;;;13.74;100.00
10097;BME280;5087;42.662;23.466;2022-10-31T07:38:47;96028.81;;;14.41;100.00
10097;BME280;5087;42.662;23.466;2022-10-31T07:41:17;96035.84;;;14.68;100.00
10097;BME280;5087;42.662;23.466;2022-10-31T07:43:48;96031.81;;;15.04;100.00
10097;BME280;5087;42.662;23.466;2022-10-31T07:46:15;96022.28;;;14.81;100.00
10097;BME280;5087;42.662;23.466;2022-10-31T07:48:58;96029.41;;;14.55;100.00
10097;BME280;5087;42.662;23.466;2022-10-31T07:52:00;96025.69;;;13.60;100.00
10097;BME280;5087;42.662;23.466;2022-10-31T07:54:46;96014.94;;;13.64;100.00
10097;BME280;5087;42.662;23.466;2022-10-31T07:57:22;96026.66;;;13.90;100.00
10097;BME280;5087;42.662;23.466;2022-10-31T07:59:50;96033.72;;;14.65;100.00
10097;BME280;5087;42.662;23.466;2022-10-31T08:02:20;96023.66;;;14.96;100.00
10097;BME280;5087;42.662;23.466;2022-10-31T08:04:47;96031.50;;;15.36;100.00
10097;BME280;5087;42.662;23.466;2022-10-31T08:07:36;96022.94;;;15.89;100.00
10097;BME280;5087;42.662;23.466;2022-10-31T08:10:07;96024.56;;;16.02;100.00
10097;BME280;5087;42.662;23.466;2022-10-31T08:12:36;96005.44;;;16.14;100.00
10097;BME280;5087;42.662;23.466;2022-10-31T08:15:07;96009.22;;;16.68;100.00
10097;BME280;5087;42.662;23.466;2022-10-31T08:17:36;96022.31;;;16.04;100.00
10097;BME280;5087;42.662;23.466;2022-10-31T08:20:03;95999.19;;;16.85;100.00
10097;BME280;5087;42.662;23.466;2022-10-31T08:22:34;96002.59;;;16.69;100.00
10097;BME280;5087;42.662;23.466;2022-10-31T08:25:01;96013.34;;;16.62;100.00
10097;BME280;5087;42.662;23.466;2022-10-31T08:27:29;96023.28;;;16.54;100.00
10097;BME280;5087;42.662;23.466;2022-10-31T08:30:01;96008.34;;;16.89;100.00
10097;BME280;5087;42.662;23.466;2022-10-31T08:32:28;95995.75;;;16.51;100.00
10097;BME280;5087;42.662;23.466;2022-10-31T08:35:31;96006.44;;;17.80;100.00
10097;BME280;5087;42.662;23.466;2022-10-31T08:38:37;95996.72;;;18.11;100.00
10097;BME280;5087;42.662;23.466;2022-10-31T08:41:08;96003.31;;;18.22;100.00
10097;BME280;5087;42.662;23.466;2022-10-31T08:43:36;96001.41;;;18.55;100.00
10097;BME280;5087;42.662;23.466;2022-10-31T08:46:05;96000.00;;;18.77;100.00
10097;BME280;5087;42.662;23.466;2022-10-31T08:48:32;96009.97;;;18.97;100.00
10097;BME280;5087;42.662;23.466;2022-10-31T08:51:01;95983.13;;;18.30;100.00
10097;BME280;5087;42.662;23.466;2022-10-31T08:53:29;95978.91;;;17.92;100.00
10097;BME280;5087;42.662;23.466;2022-10-31T08:56:15;95987.31;;;18.56;100.00
10097;BME280;5087;42.662;23.466;2022-10-31T08:58:43;95998.00;;;18.29;100.00
10097;BME280;5087;42.662;23.466;2022-10-31T09:01:12;95977.63;;;18.30;100.00
10097;BME280;5087;42.662;23.466;2022-10-31T09:03:39;95992.81;;;18.56;100.00
10097;BME280;5087;42.662;23.466;2022-10-31T09:06:06;95998.03;;;18.77;100.00
10097;BME280;5087;42.662;23.466;2022-10-31T09:08:35;95963.19;;;18.81;98.76
10097;BME280;5087;42.662;23.466;2022-10-31T09:11:03;96000.28;;;19.20;96.10
10097;BME280;5087;42.662;23.466;2022-10-31T09:14:10;95956.72;;;19.06;96.51
10097;BME280;5087;42.662;23.466;2022-10-31T09:17:14;95998.44;;;18.31;99.88
10097;BME280;5087;42.662;23.466;2022-10-31T09:20:01;95996.25;;;18.53;100.00
10097;BME280;5087;42.662;23.466;2022-10-31T09:22:32;95992.75;;;19.52;97.17
10097;BME280;5087;42.662;23.466;2022-10-31T09:24:59;95997.41;;;19.32;94.23
10097;BME280;5087;42.662;23.466;2022-10-31T09:27:26;95980.44;;;19.66;95.05
10097;BME280;5087;42.662;23.466;2022-10-31T09:29:56;95992.47;;;19.06;93.84
10097;BME280;5087;42.662;23.466;2022-10-31T09:32:28;95999.94;;;19.05;95.29
10097;BME280;5087;42.662;23.466;2022-10-31T09:34:55;95971.44;;;18.97;96.43
10097;BME280;5087;42.662;23.466;2022-10-31T09:37:23;95988.94;;;19.76;93.64
10097;BME280;5087;42.662;23.466;2022-10-31T09:39:51;95949.28;;;20.20;90.12
10097;BME280;5087;42.662;23.466;2022-10-31T09:42:41;95966.38;;;20.73;88.57
10097;BME280;5087;42.662;23.466;2022-10-31T09:45:27;95981.56;;;20.86;86.24
10097;BME280;5087;42.662;23.466;2022-10-31T09:48:09;95974.81;;;20.60;87.72
10097;BME280;5087;42.662;23.466;2022-10-31T09:51:03;95968.16;;;20.18;90.57
10097;BME280;5087;42.662;23.466;2022-10-31T09:53:50;95973.66;;;18.76;95.09
10097;BME280;5087;42.662;23.466;2022-10-31T09:56:22;95938.63;;;18.41;99.25
10097;BME280;5087;42.662;23.466;2022-10-31T09:58:57;95974.66;;;19.00;96.52
10097;BME280;5087;42.662;23.466;2022-10-31T10:01:38;95966.41;;;19.90;92.59
10097;BME280;5087;42.662;23.466;2022-10-31T10:04:29;95941.53;;;20.49;89.42
10097;BME280;5087;42.662;23.466;2022-10-31T10:07:10;95957.31;;;20.99;87.22
10097;BME280;5087;42.662;23.466;2022-10-31T10:09:42;95912.69;;;20.70;85.05
10097;BME280;5087;42.662;23.466;2022-10-31T10:12:47;95939.38;;;20.85;84.12
10097;BME280;5087;42.662;23.466;2022-10-31T10:15:34;95939.59;;;21.27;83.91
10097;BME280;5087;42.662;23.466;2022-10-31T10:18:10;95915.41;;;21.47;82.36
10097;BME280;5087;42.662;23.466;2022-10-31T10:20:51;95925.97;;;22.02;80.87
10097;BME280;5087;42.662;23.466;2022-10-31T10:23:36;95928.50;;;21.84;78.50
10097;BME280;5087;42.662;23.466;2022-10-31T10:26:26;95911.47;;;22.12;78.10
10097;BME280;5087;42.662;23.466;2022-10-31T10:28:58;95893.34;;;22.19;77.13
10097;BME280;5087;42.662;23.466;2022-10-31T10:31:32;95926.72;;;22.37;76.91
10097;BME280;5087;42.662;23.466;2022-10-31T10:34:07;95909.38;;;22.85;76.01
10097;BME280;5087;42.662;23.466;2022-10-31T10:36:42;95919.47;;;23.15;70.36
10097;BME280;5087;42.662;23.466;2022-10-31T10:39:15;95878.00;;;23.22;71.13
10097;BME280;5087;42.662;23.466;2022-10-31T10:41:47;95901.34;;;23.24;70.99
10097;BME280;5087;42.662;23.466;2022-10-31T10:44:28;95893.81;;;24.10;67.07
10097;BME280;5087;42.662;23.466;2022-10-31T10:47:13;95882.41;;;23.30;66.39
10097;BME280;5087;42.662;23.466;2022-10-31T10:49:58;95887.31;;;22.99;67.30
10097;BME280;5087;42.662;23.466;2022-10-31T10:52:31;95851.56;;;23.43;65.47
10097;BME280;5087;42.662;23.466;2022-10-31T10:55:08;95878.00;;;22.66;67.52
10097;BME280;5087;42.662;23.466;2022-10-31T10:57:47;95851.19;;;22.77;68.30
10097;BME280;5087;42.662;23.466;2022-10-31T11:00:22;95875.75;;;22.86;66.11
10097;BME280;5087;42.662;23.466;2022-10-31T11:02:50;95885.06;;;22.60;66.75
10097;BME280;5087;42.662;23.466;2022-10-31T11:05:30;95888.41;;;21.97;69.44
10097;BME280;5087;42.662;23.466;2022-10-31T11:08:01;95884.59;;;23.06;68.42
10097;BME280;5087;42.662;23.466;2022-10-31T11:10:29;95857.06;;;23.32;65.96
10097;BME280;5087;42.662;23.466;2022-10-31T11:13:03;95881.28;;;23.46;65.46
10097;BME280;5087;42.662;23.466;2022-10-31T11:15:36;95825.19;;;22.93;65.83
10097;BME280;5087;42.662;23.466;2022-10-31T11:18:04;95872.31;;;23.04;65.39
10097;BME280;5087;42.662;23.466;2022-10-31T11:20:34;95824.31;;;22.26;67.69
10097;BME280;5087;42.662;23.466;2022-10-31T11:23:10;95861.47;;;22.81;66.78
10097;BME280;5087;42.662;23.466;2022-10-31T11:25:48;95858.69;;;22.28;67.14
10097;BME280;5087;42.662;23.466;2022-10-31T11:28:16;95860.66;;;22.73;67.03
10097;BME280;5087;42.662;23.466;2022-10-31T11:30:46;95836.53;;;22.25;66.64
10097;BME280;5087;42.662;23.466;2022-10-31T11:33:19;95826.34;;;22.88;66.34
10097;BME280;5087;42.662;23.466;2022-10-31T11:35:48;95845.34;;;23.75;63.22
10097;BME280;5087;42.662;23.466;2022-10-31T11:38:22;95852.97;;;23.11;64.06
10097;BME280;5087;42.662;23.466;2022-10-31T11:40:56;95792.69;;;23.75;62.50
10097;BME280;5087;42.662;23.466;2022-10-31T11:43:24;95810.53;;;23.81;62.67
10097;BME280;5087;42.662;23.466;2022-10-31T11:45:53;95816.84;;;23.70;62.47
10097;BME280;5087;42.662;23.466;2022-10-31T11:48:22;95823.91;;;23.57;62.37
10097;BME280;5087;42.662;23.466;2022-10-31T11:50:51;95840.63;;;22.94;64.35
10097;BME280;5087;42.662;23.466;2022-10-31T11:53:26;95810.88;;;23.65;61.70
10097;BME280;5087;42.662;23.466;2022-10-31T11:56:09;95808.16;;;23.83;61.16
10097;BME280;5087;42.662;23.466;2022-10-31T11:58:37;95805.38;;;23.83;61.25
10097;BME280;5087;42.662;23.466;2022-10-31T12:01:04;95823.13;;;22.79;62.81
10097;BME280;5087;42.662;23.466;2022-10-31T12:03:43;95809.84;;;22.43;64.38
10097;BME280;5087;42.662;23.466;2022-10-31T12:06:21;95828.19;;;22.70;64.26
10097;BME280;5087;42.662;23.466;2022-10-31T12:08:52;95817.25;;;22.88;63.53
10097;BME280;5087;42.662;23.466;2022-10-31T12:11:38;95815.09;;;23.30;62.67
10097;BME280;5087;42.662;23.466;2022-10-31T12:14:28;95825.53;;;23.65;61.81
10097;BME280;5087;42.662;23.466;2022-10-31T12:17:02;95811.88;;;23.17;62.57
10097;BME280;5087;42.662;23.466;2022-10-31T12:19:36;95811.97;;;22.20;64.15
10097;BME280;5087;42.662;23.466;2022-10-31T12:22:13;95794.63;;;22.23;65.20
10097;BME280;5087;42.662;23.466;2022-10-31T12:25:08;95828.19;;;22.18;66.04
10097;BME280;5087;42.662;23.466;2022-10-31T12:27:54;95818.56;;;23.12;64.14
10097;BME280;5087;42.662;23.466;2022-10-31T12:30:28;95814.44;;;23.69;61.88
10097;BME280;5087;42.662;23.466;2022-10-31T12:36:05;95819.25;;;23.90;60.37
10097;BME280;5087;42.662;23.466;2022-10-31T12:38:55;95799.47;;;23.95;59.96
10097;BME280;5087;42.662;23.466;2022-10-31T12:41:38;95804.94;;;23.66;60.25
10097;BME280;5087;42.662;23.466;2022-10-31T12:44:18;95792.38;;;24.23;59.32
10097;BME280;5087;42.662;23.466;2022-10-31T12:46:59;95804.25;;;24.20;60.10
10097;BME280;5087;42.662;23.466;2022-10-31T12:49:42;95801.25;;;23.26;61.90
10097;BME280;5087;42.662;23.466;2022-10-31T12:52:23;95755.00;;;22.08;62.64
10097;BME280;5087;42.662;23.466;2022-10-31T12:55:06;95813.53;;;22.62;64.10
10097;BME280;5087;42.662;23.466;2022-10-31T12:57:40;95823.69;;;23.06;63.56
10097;BME280;5087;42.662;23.466;2022-10-31T13:00:12;95818.94;;;23.07;62.43
10097;BME280;5087;42.662;23.466;2022-10-31T13:02:45;95789.38;;;23.22;61.33
10097;BME280;5087;42.662;23.466;2022-10-31T13:05:18;95804.25;;;24.20;60.33
10097;BME280;5087;42.662;23.466;2022-10-31T13:07:50;95807.38;;;23.86;59.55
10097;BME280;5087;42.662;23.466;2022-10-31T13:10:25;95809.28;;;22.79;61.30
10097;BME280;5087;42.662;23.466;2022-10-31T13:13:00;95814.34;;;23.36;61.51
10097;BME280;5087;42.662;23.466;2022-10-31T13:15:34;95814.41;;;22.77;62.16
10097;BME280;5087;42.662;23.466;2022-10-31T13:18:09;95793.53;;;22.87;62.16
10097;BME280;5087;42.662;23.466;2022-10-31T13:20:41;95813.16;;;23.30;62.42
10097;BME280;5087;42.662;23.466;2022-10-31T13:23:14;95817.25;;;22.88;62.29
10097;BME280;5087;42.662;23.466;2022-10-31T13:25:46;95817.94;;;22.70;62.79
10097;BME280;5087;42.662;23.466;2022-10-31T13:28:26;95794.28;;;22.84;62.51
10097;BME280;5087;42.662;23.466;2022-10-31T13:30:55;95821.47;;;22.67;62.22
10097;BME280;5087;42.662;23.466;2022-10-31T13:33:26;95822.81;;;22.36;62.76
10097;BME280;5087;42.662;23.466;2022-10-31T13:36:13;95813.50;;;22.55;62.82